Time;durP1;ratioP1;P1;durP2;ratioP2;P2;SDS_P1;SDS_P2;PMS_P1;PMS_P2;Temp;Humidity;BMP_temperature;BMP_pressure;BME280_temperature;BME280_humidity;BME280_pressure;Samples;Min_cycle;Max_cycle;Signal;HPM_P1;HPM_P2
2023/03/27 00:01:52;;;;;;;6.65;1.10;;;3.80;99.90;;;;;;5056958;28;20032;-70
2023/03/27 00:04:18;;;;;;;7.70;1.10;;;3.70;99.90;;;;;;5057131;28;20048;-70
2023/03/27 00:06:44;;;;;;;6.30;1.33;;;3.90;99.90;;;;;;5071935;28;20037;-70
2023/03/27 00:09:11;;;;;;;5.20;1.23;;;3.70;99.90;;;;;;5037255;28;20037;-70
2023/03/27 00:11:36;;;;;;;6.57;1.52;;;3.70;99.90;;;;;;5056872;28;20037;-70
2023/03/27 00:14:03;;;;;;;5.60;1.15;;;3.60;99.90;;;;;;5073433;28;20481;-70
2023/03/27 00:16:29;;;;;;;10.20;1.85;;;3.60;99.90;;;;;;5073484;28;20036;-70
2023/03/27 00:18:55;;;;;;;6.93;1.10;;;3.70;99.90;;;;;;5072559;28;20047;-70
2023/03/27 00:21:21;;;;;;;6.80;1.17;;;3.70;99.90;;;;;;5052404;28;20037;-69
2023/03/27 00:23:47;;;;;;;8.25;1.60;;;3.70;99.90;;;;;;5036537;28;20040;-70
2023/03/27 00:26:14;;;;;;;6.75;1.70;;;3.70;99.90;;;;;;5036586;28;20099;-70
2023/03/27 00:28:39;;;;;;;6.90;1.33;;;3.70;99.90;;;;;;5052970;28;20124;-70
2023/03/27 00:31:13;;;;;;;5.22;1.20;;;3.70;99.90;;;;;;5055353;28;20468;-70
2023/03/27 00:33:39;;;;;;;4.70;1.10;;;3.70;99.90;;;;;;5053343;28;20462;-70
2023/03/27 00:36:05;;;;;;;7.32;1.50;;;3.80;99.90;;;;;;5036468;28;20044;-70
2023/03/27 00:38:32;;;;;;;5.30;1.20;;;3.80;99.90;;;;;;5047605;28;20040;-69
2023/03/27 00:40:59;;;;;;;7.97;1.35;;;3.70;99.90;;;;;;5088734;28;20037;-70
2023/03/27 00:43:33;;;;;;;8.25;1.30;;;3.70;99.90;;;;;;5053159;28;20397;-70
2023/03/27 00:46:03;;;;;;;6.55;1.20;;;3.70;99.90;;;;;;5057560;28;20081;-70
2023/03/27 00:48:33;;;;;;;10.10;1.35;;;3.70;99.90;;;;;;5054574;28;20044;-70
2023/03/27 00:50:59;;;;;;;6.70;1.10;;;3.70;99.90;;;;;;5050116;28;20048;-70
2023/03/27 00:53:27;;;;;;;5.15;1.00;;;3.70;99.90;;;;;;5072588;28;20032;-70
2023/03/27 00:55:56;;;;;;;5.28;1.13;;;3.70;99.90;;;;;;5072701;28;20040;-70
2023/03/27 00:58:26;;;;;;;6.22;1.17;;;3.70;99.90;;;;;;5071095;28;20489;-70
2023/03/27 01:00:53;;;;;;;6.68;1.10;;;3.60;99.90;;;;;;5044506;28;20116;-70
2023/03/27 01:03:22;;;;;;;6.65;1.42;;;3.60;99.90;;;;;;5035815;28;20041;-69
2023/03/27 01:05:49;;;;;;;6.85;1.10;;;3.60;99.90;;;;;;5052469;28;20078;-70
2023/03/27 01:08:16;;;;;;;5.07;1.13;;;3.60;99.90;;;;;;5065480;28;20044;-70
2023/03/27 01:11:19;;;;;;;5.57;1.00;;;3.50;99.90;;;;;;5069694;28;20125;-70
2023/03/27 01:13:58;;;;;;;5.03;1.20;;;3.50;99.90;;;;;;5057421;28;20088;-70
2023/03/27 01:16:43;;;;;;;4.78;0.80;;;3.40;99.90;;;;;;5072213;28;20051;-70
2023/03/27 01:19:25;;;;;;;5.63;1.20;;;3.40;99.90;;;;;;5039762;28;20488;-70
2023/03/27 01:22:06;;;;;;;8.25;1.17;;;3.30;99.90;;;;;;5067465;28;20127;-70
2023/03/27 01:25:09;;;;;;;6.30;1.10;;;3.30;99.90;;;;;;5070524;28;20419;-69
2023/03/27 01:28:13;;;;;;;7.90;1.02;;;3.30;99.90;;;;;;5064046;28;20386;-70
2023/03/27 01:30:48;;;;;;;7.88;1.30;;;3.30;99.90;;;;;;5051675;28;20150;-70
2023/03/27 01:33:39;;;;;;;4.00;0.95;;;3.30;99.90;;;;;;5035667;28;20045;-69
2023/03/27 01:36:26;;;;;;;5.70;1.20;;;3.30;99.90;;;;;;5035266;28;20554;-69
2023/03/27 01:39:19;;;;;;;5.80;1.58;;;3.30;99.90;;;;;;5065531;28;20048;-69
2023/03/27 01:41:53;;;;;;;4.32;0.98;;;3.20;99.90;;;;;;5064999;28;20106;-70
2023/03/27 01:44:27;;;;;;;3.65;1.00;;;3.20;99.90;;;;;;5071890;28;20097;-69
2023/03/27 01:47:06;;;;;;;4.13;1.33;;;3.20;99.90;;;;;;5069160;28;20090;-70
2023/03/27 01:49:39;;;;;;;7.63;1.30;;;3.20;99.90;;;;;;5035153;28;20044;-69
2023/03/27 01:52:11;;;;;;;3.15;1.00;;;3.20;99.90;;;;;;5070379;28;20431;-70
2023/03/27 01:54:42;;;;;;;9.52;1.15;;;3.20;99.90;;;;;;5072156;28;20032;-69
2023/03/27 01:57:22;;;;;;;7.43;1.20;;;3.20;99.90;;;;;;5070925;28;20437;-70
2023/03/27 02:00:16;;;;;;;5.70;1.10;;;3.20;99.90;;;;;;5054987;28;20400;-70
2023/03/27 02:03:06;;;;;;;6.07;1.10;;;3.20;99.90;;;;;;5035150;28;20048;-70
2023/03/27 02:05:37;;;;;;;3.63;0.65;;;3.10;99.90;;;;;;5035016;28;20037;-69
2023/03/27 02:08:13;;;;;;;6.22;0.93;;;3.10;99.90;;;;;;5059616;28;20471;-70
2023/03/27 02:10:45;;;;;;;3.05;0.80;;;3.10;99.90;;;;;;5053633;28;20059;-69
2023/03/27 02:13:20;;;;;;;7.40;1.00;;;3.10;99.90;;;;;;5071711;28;20481;-69
2023/03/27 02:15:49;;;;;;;4.88;0.90;;;3.10;99.90;;;;;;5071545;28;20051;-69
2023/03/27 02:18:27;;;;;;;6.75;0.93;;;3.20;99.90;;;;;;5068879;28;20032;-70
2023/03/27 02:20:53;;;;;;;6.07;1.00;;;3.10;99.90;;;;;;5055274;28;20033;-70
2023/03/27 02:23:21;;;;;;;4.88;0.95;;;3.10;99.90;;;;;;5071573;28;20033;-70
2023/03/27 02:25:47;;;;;;;9.75;1.45;;;3.00;99.90;;;;;;5054760;28;20063;-70
2023/03/27 02:28:35;;;;;;;6.57;1.10;;;2.90;99.90;;;;;;5041704;28;20490;-70
2023/03/27 02:31:26;;;;;;;5.65;1.38;;;2.90;99.90;;;;;;5049897;28;20477;-70
2023/03/27 02:34:17;;;;;;;9.50;1.52;;;2.80;99.90;;;;;;5054184;28;20400;-69
2023/03/27 02:37:01;;;;;;;4.65;1.13;;;2.80;99.90;;;;;;5052976;28;20041;-69
2023/03/27 02:39:49;;;;;;;5.20;1.20;;;2.80;99.90;;;;;;5069086;28;20037;-70
2023/03/27 02:42:40;;;;;;;3.70;0.85;;;2.80;99.90;;;;;;5071320;28;20098;-69
2023/03/27 02:45:21;;;;;;;8.85;1.25;;;2.80;99.90;;;;;;5050870;28;20051;-69
2023/03/27 02:47:54;;;;;;;3.15;0.90;;;2.70;99.90;;;;;;5044236;28;20045;-69
2023/03/27 02:50:37;;;;;;;5.15;1.10;;;2.80;99.90;;;;;;5058516;28;20374;-70
2023/03/27 02:53:05;;;;;;;7.50;1.10;;;2.80;99.90;;;;;;5075101;28;20114;-70
2023/03/27 02:55:36;;;;;;;3.60;1.20;;;2.80;99.90;;;;;;5074846;28;20503;-70
2023/03/27 02:58:06;;;;;;;5.35;1.05;;;2.80;99.90;;;;;;5046160;28;20041;-70
2023/03/27 03:00:38;;;;;;;7.43;1.27;;;2.90;99.90;;;;;;5038252;28;20081;-69
2023/03/27 03:03:13;;;;;;;6.13;0.95;;;2.90;99.90;;;;;;5054413;28;20095;-70
2023/03/27 03:05:39;;;;;;;14.85;1.52;;;2.90;99.90;;;;;;5054740;28;20049;-69
2023/03/27 03:08:08;;;;;;;8.00;1.15;;;2.90;99.90;;;;;;5054518;28;20417;-69
2023/03/27 03:10:35;;;;;;;8.88;1.50;;;2.90;99.90;;;;;;5074508;28;20095;-69
2023/03/27 03:13:00;;;;;;;6.38;1.30;;;2.90;99.90;;;;;;5058078;28;20476;-69
2023/03/27 03:15:26;;;;;;;11.00;1.63;;;2.90;99.90;;;;;;5056262;28;20033;-70
2023/03/27 03:17:52;;;;;;;4.57;1.20;;;3.00;99.90;;;;;;5060876;28;20044;-69
2023/03/27 03:20:18;;;;;;;6.38;1.23;;;3.00;99.90;;;;;;5074111;28;20059;-70
2023/03/27 03:22:44;;;;;;;6.00;1.40;;;3.00;99.90;;;;;;5054543;28;20044;-70
2023/03/27 03:25:10;;;;;;;7.30;1.10;;;3.00;99.90;;;;;;5037783;28;20037;-69
2023/03/27 03:27:36;;;;;;;10.18;1.45;;;3.00;99.90;;;;;;5068468;28;20041;-69
2023/03/27 03:30:03;;;;;;;6.78;1.40;;;3.00;99.90;;;;;;5053682;28;20043;-69
2023/03/27 03:32:29;;;;;;;6.82;1.40;;;3.00;99.90;;;;;;5037913;28;20489;-69
2023/03/27 03:34:55;;;;;;;7.60;1.70;;;3.00;99.90;;;;;;5054535;28;20033;-70
2023/03/27 03:37:27;;;;;;;8.52;1.67;;;2.90;99.90;;;;;;5059072;28;20037;-69
2023/03/27 03:39:53;;;;;;;7.55;1.88;;;2.90;99.90;;;;;;5073123;28;20431;-69
2023/03/27 03:42:19;;;;;;;6.75;1.10;;;2.90;99.90;;;;;;5054112;28;20485;-69
2023/03/27 03:44:45;;;;;;;6.22;1.33;;;2.80;99.90;;;;;;5037452;28;20048;-70
2023/03/27 03:47:10;;;;;;;5.22;1.70;;;2.80;99.90;;;;;;5041290;28;20041;-69
2023/03/27 03:49:36;;;;;;;9.10;1.42;;;2.80;99.90;;;;;;5073542;28;20374;-69
2023/03/27 03:52:02;;;;;;;5.35;1.15;;;2.80;99.90;;;;;;5061482;28;20122;-70
2023/03/27 03:54:28;;;;;;;6.22;1.20;;;2.80;99.90;;;;;;5058952;28;20497;-70
2023/03/27 03:56:53;;;;;;;5.75;1.27;;;2.70;99.90;;;;;;5062132;28;20119;-69
2023/03/27 03:59:20;;;;;;;7.30;1.30;;;2.70;99.90;;;;;;5049022;28;20397;-70
2023/03/27 04:01:45;;;;;;;6.38;1.17;;;2.80;99.90;;;;;;5069799;28;20115;-70
2023/03/27 04:04:11;;;;;;;5.13;1.25;;;2.80;99.90;;;;;;5083978;28;20476;-70
2023/03/27 04:06:37;;;;;;;4.15;1.10;;;2.80;99.90;;;;;;5061258;28;20037;-69
2023/03/27 04:09:04;;;;;;;7.20;1.35;;;2.80;99.90;;;;;;5071763;28;20036;-69
2023/03/27 04:11:29;;;;;;;6.13;1.30;;;2.80;99.90;;;;;;5053745;28;20127;-70
2023/03/27 04:13:55;;;;;;;10.68;1.25;;;2.70;99.90;;;;;;5053985;28;20533;-70
2023/03/27 04:16:21;;;;;;;7.25;1.50;;;2.70;99.90;;;;;;5037111;28;20041;-69
2023/03/27 04:18:49;;;;;;;9.02;2.17;;;2.60;99.90;;;;;;5036793;28;20076;-69
2023/03/27 04:21:16;;;;;;;6.75;1.35;;;2.60;99.90;;;;;;5037014;28;20378;-70
2023/03/27 04:23:44;;;;;;;3.33;0.85;;;2.50;99.90;;;;;;5064472;28;20078;-69
2023/03/27 04:26:11;;;;;;;10.23;1.23;;;2.50;99.90;;;;;;5073148;28;20131;-69
2023/03/27 04:28:37;;;;;;;6.40;1.42;;;2.50;99.90;;;;;;5056605;28;20037;-70
2023/03/27 04:31:05;;;;;;;8.80;1.70;;;2.60;99.90;;;;;;5050923;28;20043;-69
2023/03/27 04:33:33;;;;;;;6.65;1.27;;;2.70;99.90;;;;;;5045974;28;20081;-70
2023/03/27 04:35:59;;;;;;;8.30;1.58;;;2.70;99.90;;;;;;5071179;28;20438;-70
2023/03/27 04:38:26;;;;;;;5.85;1.17;;;2.70;99.90;;;;;;5052235;28;20041;-69
2023/03/27 04:40:52;;;;;;;7.93;1.30;;;2.70;99.90;;;;;;5052613;28;20028;-69
2023/03/27 04:43:18;;;;;;;7.18;1.27;;;2.70;99.90;;;;;;5063356;28;20123;-69
2023/03/27 04:45:46;;;;;;;5.47;1.30;;;2.70;99.90;;;;;;5045975;28;20115;-70
2023/03/27 04:48:12;;;;;;;6.72;1.70;;;2.70;99.90;;;;;;5048439;28;20048;-69
2023/03/27 04:50:39;;;;;;;6.05;1.13;;;2.60;99.90;;;;;;5052118;28;20064;-70
2023/03/27 04:53:05;;;;;;;8.10;1.35;;;2.70;99.90;;;;;;5053570;28;20125;-69
2023/03/27 04:55:36;;;;;;;10.80;1.88;;;2.60;99.90;;;;;;5052663;28;20040;-69
2023/03/27 04:58:04;;;;;;;9.90;1.88;;;2.60;99.90;;;;;;5060073;28;20068;-70
2023/03/27 05:00:30;;;;;;;7.28;1.45;;;2.60;99.90;;;;;;5071928;28;20044;-70
2023/03/27 05:02:56;;;;;;;6.88;1.30;;;2.60;99.90;;;;;;5068890;28;20408;-69
2023/03/27 05:05:22;;;;;;;6.45;1.48;;;2.60;99.90;;;;;;5062989;28;20043;-70
2023/03/27 05:07:48;;;;;;;4.70;1.30;;;2.60;99.90;;;;;;5054814;28;20045;-70
2023/03/27 05:10:16;;;;;;;7.07;1.85;;;2.50;99.90;;;;;;5049615;28;20056;-70
2023/03/27 05:12:49;;;;;;;7.03;1.38;;;2.60;99.90;;;;;;5038458;28;20045;-69
2023/03/27 05:15:16;;;;;;;10.95;2.15;;;2.60;99.90;;;;;;5055578;28;20048;-70
2023/03/27 05:17:44;;;;;;;7.15;1.38;;;2.60;99.90;;;;;;5058383;28;20040;-70
2023/03/27 05:20:13;;;;;;;7.95;1.30;;;2.60;99.90;;;;;;5075864;28;20044;-70
2023/03/27 05:22:40;;;;;;;11.75;1.65;;;2.70;99.90;;;;;;5053832;28;20067;-70
2023/03/27 05:25:07;;;;;;;7.72;1.88;;;2.60;99.90;;;;;;5064836;28;20045;-70
2023/03/27 05:27:33;;;;;;;7.25;1.40;;;2.70;99.90;;;;;;5071326;28;20131;-70
2023/03/27 05:29:58;;;;;;;5.88;1.23;;;2.70;99.90;;;;;;5064310;28;20056;-70
2023/03/27 05:32:24;;;;;;;6.70;1.50;;;2.70;99.90;;;;;;5053218;28;20037;-70
2023/03/27 05:34:53;;;;;;;9.35;1.75;;;2.70;99.90;;;;;;5051371;28;20029;-70
2023/03/27 05:37:20;;;;;;;8.38;1.73;;;2.80;99.90;;;;;;5061710;28;20036;-70
2023/03/27 05:39:45;;;;;;;7.07;1.20;;;2.80;99.90;;;;;;5054059;28;20397;-69
2023/03/27 05:42:15;;;;;;;8.93;1.92;;;2.80;99.90;;;;;;5070320;28;20093;-68
2023/03/27 05:44:44;;;;;;;6.22;1.17;;;2.80;99.90;;;;;;5054723;28;20488;-69
2023/03/27 05:47:11;;;;;;;5.63;1.00;;;2.80;99.90;;;;;;5050223;28;20439;-69
2023/03/27 05:49:38;;;;;;;7.55;1.67;;;2.80;99.90;;;;;;5035102;28;20481;-68
2023/03/27 05:52:03;;;;;;;5.68;0.70;;;2.80;99.90;;;;;;5054982;28;20041;-69
2023/03/27 05:54:29;;;;;;;6.43;1.30;;;2.80;99.90;;;;;;5051773;28;20075;-68
2023/03/27 05:56:55;;;;;;;3.03;0.65;;;2.80;99.90;;;;;;5066881;28;20044;-68
2023/03/27 05:59:21;;;;;;;3.17;0.68;;;2.90;99.90;;;;;;5058485;28;20043;-69
2023/03/27 06:01:47;;;;;;;6.03;0.73;;;2.90;99.90;;;;;;5049277;28;20392;-68
2023/03/27 06:04:21;;;;;;;3.13;0.80;;;2.90;99.90;;;;;;5079990;28;20396;-68
2023/03/27 06:06:46;;;;;;;4.40;0.80;;;3.00;99.90;;;;;;5066889;28;20127;-68
2023/03/27 06:09:12;;;;;;;8.82;1.02;;;3.10;99.90;;;;;;5069552;28;20112;-69
2023/03/27 06:11:39;;;;;;;8.23;1.10;;;3.10;99.90;;;;;;5065696;28;20052;-69
2023/03/27 06:14:05;;;;;;;3.35;0.63;;;3.20;99.90;;;;;;5050923;28;20041;-69
2023/03/27 06:16:30;;;;;;;8.48;0.98;;;3.30;99.90;;;;;;5035174;28;20508;-69
2023/03/27 06:18:56;;;;;;;3.70;0.70;;;3.30;99.90;;;;;;5047028;28;20037;-69
2023/03/27 06:21:22;;;;;;;7.50;1.02;;;3.30;99.90;;;;;;5065443;28;20523;-68
2023/03/27 06:23:47;;;;;;;9.05;2.15;;;3.30;99.90;;;;;;5050185;28;20052;-69
2023/03/27 06:26:14;;;;;;;6.75;0.80;;;3.30;99.90;;;;;;5057665;28;20114;-69
2023/03/27 06:28:40;;;;;;;5.30;0.80;;;3.40;99.90;;;;;;5053667;28;20051;-69
2023/03/27 06:31:05;;;;;;;6.63;1.02;;;3.30;99.90;;;;;;5056004;28;20668;-69
2023/03/27 06:33:31;;;;;;;6.63;1.00;;;3.40;99.90;;;;;;5064485;28;20037;-69
2023/03/27 06:35:59;;;;;;;4.50;0.90;;;3.40;99.90;;;;;;5055349;28;20045;-69
2023/03/27 06:38:26;;;;;;;4.38;0.93;;;3.40;99.90;;;;;;5045956;28;20111;-69
2023/03/27 06:40:52;;;;;;;11.45;1.08;;;3.50;99.90;;;;;;5063385;28;20043;-68
2023/03/27 06:43:21;;;;;;;2.72;0.77;;;3.60;99.90;;;;;;5058784;28;20040;-69
2023/03/27 06:45:48;;;;;;;7.07;0.80;;;3.60;99.90;;;;;;5066366;28;20029;-69
2023/03/27 06:48:15;;;;;;;5.43;1.40;;;3.70;99.90;;;;;;5054542;28;20076;-70
2023/03/27 06:50:42;;;;;;;3.90;0.90;;;3.80;99.90;;;;;;5047609;28;20048;-69
2023/03/27 06:53:10;;;;;;;6.88;0.93;;;3.80;99.90;;;;;;5074802;28;20408;-69
2023/03/27 06:55:36;;;;;;;5.80;0.90;;;4.00;99.90;;;;;;5050625;28;20028;-70
2023/03/27 06:58:02;;;;;;;8.85;1.73;;;4.10;99.90;;;;;;5072701;28;20044;-70
2023/03/27 07:00:33;;;;;;;6.05;1.20;;;4.10;99.90;;;;;;5054722;28;20056;-70
2023/03/27 07:03:05;;;;;;;7.13;0.95;;;4.10;99.90;;;;;;5049073;28;20132;-70
2023/03/27 07:05:35;;;;;;;5.10;1.43;;;4.10;99.90;;;;;;5055995;28;20484;-70
2023/03/27 07:08:11;;;;;;;6.93;1.30;;;4.10;99.90;;;;;;5072470;28;20044;-70
2023/03/27 07:10:38;;;;;;;8.13;1.10;;;4.10;99.90;;;;;;5037729;28;20501;-70
2023/03/27 07:13:04;;;;;;;7.40;1.15;;;4.20;99.90;;;;;;5061676;28;20033;-70
2023/03/27 07:15:30;;;;;;;3.47;0.80;;;4.20;99.90;;;;;;5057527;28;20040;-70
2023/03/27 07:18:01;;;;;;;6.20;1.08;;;4.20;99.90;;;;;;5058564;28;20040;-70
2023/03/27 07:20:29;;;;;;;6.53;1.38;;;4.20;99.90;;;;;;5053881;28;20044;-70
2023/03/27 07:22:56;;;;;;;7.78;1.35;;;4.20;99.90;;;;;;5071774;28;20056;-70
2023/03/27 07:25:24;;;;;;;5.10;0.93;;;4.20;99.90;;;;;;5068577;28;20075;-70
2023/03/27 07:27:49;;;;;;;8.98;1.20;;;4.30;99.90;;;;;;5054137;28;20442;-70
2023/03/27 07:30:15;;;;;;;4.03;1.05;;;4.40;99.90;;;;;;5054032;28;20039;-70
2023/03/27 07:32:43;;;;;;;6.10;1.25;;;4.40;99.90;;;;;;5059370;28;20087;-70
2023/03/27 07:35:10;;;;;;;4.68;1.00;;;4.60;99.90;;;;;;5067831;28;20060;-70
2023/03/27 07:37:37;;;;;;;8.10;1.00;;;4.60;99.90;;;;;;5068644;28;20090;-71
2023/03/27 07:40:07;;;;;;;4.97;0.98;;;4.70;99.90;;;;;;5067031;28;20040;-71
2023/03/27 07:42:33;;;;;;;6.90;1.17;;;4.80;99.90;;;;;;5070953;28;20033;-70
2023/03/27 07:45:00;;;;;;;5.65;0.85;;;4.90;99.90;;;;;;5060076;28;20044;-70
2023/03/27 07:47:26;;;;;;;5.90;1.17;;;5.00;99.90;;;;;;5052519;28;20124;-70
2023/03/27 07:49:51;;;;;;;6.75;1.35;;;5.10;99.90;;;;;;5052355;28;20469;-70
2023/03/27 07:52:17;;;;;;;8.57;1.45;;;5.20;99.90;;;;;;5052293;28;20049;-71
2023/03/27 07:54:42;;;;;;;8.65;1.65;;;5.50;99.90;;;;;;5054035;28;20032;-71
2023/03/27 07:57:10;;;;;;;5.13;1.17;;;5.60;99.90;;;;;;5070005;28;20036;-71
2023/03/27 07:59:37;;;;;;;9.10;1.25;;;5.70;99.90;;;;;;5059327;28;20101;-70
2023/03/27 08:02:02;;;;;;;10.48;1.48;;;5.70;99.90;;;;;;5068781;28;20071;-71
2023/03/27 08:04:28;;;;;;;7.68;1.33;;;5.60;99.90;;;;;;5089128;28;20072;-70
2023/03/27 08:06:53;;;;;;;5.35;1.00;;;5.40;99.90;;;;;;5051235;28;20037;-71
2023/03/27 08:09:20;;;;;;;4.95;1.17;;;5.30;99.90;;;;;;5053135;28;20397;-70
2023/03/27 08:11:46;;;;;;;2.97;0.80;;;5.30;99.90;;;;;;5049797;28;20028;-71
2023/03/27 08:14:12;;;;;;;6.82;1.35;;;5.20;99.90;;;;;;5067880;28;20036;-70
2023/03/27 08:16:38;;;;;;;3.33;0.80;;;5.20;99.90;;;;;;5039976;28;20045;-71
2023/03/27 08:19:05;;;;;;;4.07;1.25;;;5.20;99.90;;;;;;5052673;28;20630;-70
2023/03/27 08:21:32;;;;;;;5.97;1.10;;;5.20;99.90;;;;;;5053409;28;20041;-71
2023/03/27 08:23:59;;;;;;;4.75;1.05;;;5.30;99.90;;;;;;5072412;28;20059;-70
2023/03/27 08:26:26;;;;;;;5.15;1.00;;;5.30;99.90;;;;;;5072549;28;20044;-70
2023/03/27 08:28:53;;;;;;;7.93;1.10;;;5.20;99.90;;;;;;5050105;28;20393;-71
2023/03/27 08:31:19;;;;;;;8.60;1.17;;;5.30;99.90;;;;;;5048261;28;20094;-71
2023/03/27 08:33:45;;;;;;;5.15;1.15;;;5.50;99.90;;;;;;5064224;28;20041;-71
2023/03/27 08:36:13;;;;;;;4.47;1.00;;;5.50;99.90;;;;;;5053415;28;20523;-70
2023/03/27 08:38:41;;;;;;;5.10;1.00;;;5.60;99.90;;;;;;5068067;28;20504;-70
2023/03/27 08:41:37;;;;;;;4.47;0.98;;;5.60;99.90;;;;;;5049147;28;20480;-70
2023/03/27 08:44:05;;;;;;;6.85;1.00;;;5.70;99.90;;;;;;5057324;28;20511;-70
2023/03/27 08:46:37;;;;;;;1.98;0.70;;;5.90;99.90;;;;;;5066813;28;20048;-70
2023/03/27 08:49:16;;;;;;;4.22;1.00;;;5.90;99.90;;;;;;5069126;28;20071;-71
2023/03/27 08:51:47;;;;;;;7.18;1.30;;;5.90;99.90;;;;;;5051735;28;20048;-70
2023/03/27 08:54:22;;;;;;;8.98;1.45;;;6.10;99.90;;;;;;5045321;28;20036;-70
2023/03/27 08:56:49;;;;;;;5.80;1.73;;;6.30;99.90;;;;;;5056248;28;20126;-69
2023/03/27 08:59:18;;;;;;;5.90;1.05;;;6.30;99.90;;;;;;5069297;28;20068;-69
2023/03/27 09:02:06;;;;;;;8.88;1.25;;;6.30;99.90;;;;;;5049958;28;20041;-70
2023/03/27 09:04:47;;;;;;;6.43;1.10;;;6.40;99.90;;;;;;5056758;28;20048;-70
2023/03/27 09:07:39;;;;;;;5.68;1.50;;;6.50;99.90;;;;;;5088381;28;20094;-70
2023/03/27 09:10:14;;;;;;;3.38;0.80;;;6.70;99.90;;;;;;5063915;28;20516;-70
2023/03/27 09:13:08;;;;;;;8.65;1.30;;;6.70;99.90;;;;;;5067732;28;20037;-70
2023/03/27 09:15:42;;;;;;;7.00;1.40;;;6.60;99.90;;;;;;5051604;28;20044;-70
2023/03/27 09:18:18;;;;;;;3.97;1.08;;;6.70;99.90;;;;;;5060047;28;20044;-70
2023/03/27 09:20:51;;;;;;;5.22;0.98;;;6.80;99.90;;;;;;5052126;28;20463;-70
2023/03/27 09:23:29;;;;;;;5.45;1.00;;;7.00;99.90;;;;;;5042478;28;20562;-70
2023/03/27 09:26:04;;;;;;;6.65;1.13;;;6.90;99.90;;;;;;5066852;28;20463;-70
2023/03/27 09:28:36;;;;;;;5.57;1.20;;;6.90;99.90;;;;;;5069741;28;20048;-70
2023/03/27 09:31:33;;;;;;;5.63;1.00;;;7.00;99.90;;;;;;5062097;28;20032;-70
2023/03/27 09:34:05;;;;;;;6.70;1.08;;;6.80;99.90;;;;;;5069945;28;20048;-69
2023/03/27 09:36:31;;;;;;;5.45;1.10;;;6.70;99.90;;;;;;5053885;28;20093;-70
2023/03/27 09:39:04;;;;;;;8.13;1.00;;;6.60;99.90;;;;;;5051557;28;20094;-70
2023/03/27 09:41:33;;;;;;;6.60;1.30;;;6.80;99.90;;;;;;5041964;28;20420;-70
2023/03/27 09:44:14;;;;;;;9.57;2.08;;;6.90;99.90;;;;;;5052776;28;20090;-69
2023/03/27 09:46:44;;;;;;;5.40;1.35;;;7.00;99.90;;;;;;5047115;28;21106;-69
2023/03/27 09:49:17;;;;;;;6.35;0.90;;;7.10;99.90;;;;;;5046738;28;20388;-70
2023/03/27 09:51:50;;;;;;;4.20;0.90;;;7.20;99.90;;;;;;5069765;28;20489;-70
2023/03/27 09:54:19;;;;;;;3.47;0.75;;;7.30;99.90;;;;;;5070041;28;20076;-69
2023/03/27 09:57:12;;;;;;;3.92;0.70;;;7.30;99.90;;;;;;5051631;28;20044;-70
2023/03/27 09:59:58;;;;;;;3.20;0.60;;;7.50;99.90;;;;;;5042500;28;20044;-70
2023/03/27 10:02:30;;;;;;;3.78;0.88;;;7.50;99.90;;;;;;5053362;28;20052;-70
2023/03/27 10:04:58;;;;;;;2.50;0.60;;;7.50;99.90;;;;;;5075484;28;20040;-70
2023/03/27 10:07:24;;;;;;;4.72;0.73;;;7.40;99.90;;;;;;5068867;28;20105;-69
2023/03/27 10:10:16;;;;;;;5.90;0.70;;;7.30;99.90;;;;;;5068875;28;20032;-70
2023/03/27 10:12:44;;;;;;;2.83;0.90;;;7.30;99.90;;;;;;5050867;28;20120;-69
2023/03/27 10:15:28;;;;;;;3.90;0.50;;;7.40;99.90;;;;;;5060903;28;20067;-69
2023/03/27 10:17:55;;;;;;;5.93;0.55;;;7.60;99.90;;;;;;5062096;28;20041;-69
2023/03/27 10:20:22;;;;;;;4.22;0.77;;;7.80;99.90;;;;;;5050540;28;20437;-69
2023/03/27 10:23:00;;;;;;;3.80;1.27;;;7.90;99.90;;;;;;5059314;28;20037;-69
2023/03/27 10:25:33;;;;;;;4.40;0.77;;;7.90;99.90;;;;;;5042388;28;20036;-70
2023/03/27 10:28:13;;;;;;;4.43;0.70;;;7.70;99.90;;;;;;5052471;28;20040;-70
2023/03/27 10:30:39;;;;;;;5.13;0.70;;;7.70;99.90;;;;;;5054520;28;20045;-69
2023/03/27 10:33:06;;;;;;;4.20;0.70;;;7.60;99.90;;;;;;5053708;28;20041;-69
2023/03/27 10:35:35;;;;;;;2.25;0.55;;;7.40;99.90;;;;;;5046688;28;20484;-69
2023/03/27 10:38:11;;;;;;;3.05;0.60;;;7.60;99.90;;;;;;5062401;28;20048;-69
2023/03/27 10:40:38;;;;;;;4.00;0.70;;;7.70;99.90;;;;;;5066455;28;20040;-69
2023/03/27 10:43:11;;;;;;;2.85;0.45;;;7.80;99.90;;;;;;5058191;28;20054;-69
2023/03/27 10:45:48;;;;;;;5.10;0.73;;;7.80;99.90;;;;;;5053894;28;20575;-69
2023/03/27 10:48:28;;;;;;;1.38;0.65;;;7.90;99.90;;;;;;5034213;28;20051;-69
2023/03/27 10:51:00;;;;;;;3.30;0.68;;;7.80;99.90;;;;;;5049174;28;20053;-70
2023/03/27 10:53:40;;;;;;;7.03;1.00;;;7.80;99.90;;;;;;5038833;28;20033;-69
2023/03/27 10:56:33;;;;;;;6.22;1.08;;;7.90;99.90;;;;;;5059922;28;20033;-69
2023/03/27 10:59:10;;;;;;;9.35;1.10;;;7.80;99.90;;;;;;5046194;28;20040;-70
2023/03/27 11:01:41;;;;;;;3.15;0.60;;;7.80;99.90;;;;;;5050324;28;20048;-69
2023/03/27 11:04:35;;;;;;;3.05;0.82;;;7.90;99.90;;;;;;5056463;28;20086;-70
2023/03/27 11:07:04;;;;;;;3.00;0.63;;;8.00;99.90;;;;;;5062521;28;20118;-69
2023/03/27 11:09:43;;;;;;;5.55;0.90;;;8.20;99.90;;;;;;5036230;28;20136;-69
2023/03/27 11:12:11;;;;;;;3.83;0.50;;;8.30;99.90;;;;;;5067103;28;20065;-70
2023/03/27 11:15:03;;;;;;;4.57;0.88;;;8.30;99.60;;;;;;5071232;28;20040;-69
2023/03/27 11:17:37;;;;;;;2.85;0.68;;;8.40;99.90;;;;;;5052087;28;20041;-70
2023/03/27 11:20:10;;;;;;;4.65;0.90;;;8.50;99.90;;;;;;5074803;28;20045;-69
2023/03/27 11:22:46;;;;;;;4.55;0.68;;;8.70;99.90;;;;;;5054325;28;20050;-70
2023/03/27 11:25:31;;;;;;;2.88;0.63;;;8.70;99.90;;;;;;5072331;28;20047;-70
2023/03/27 11:28:23;;;;;;;3.78;0.60;;;8.70;99.50;;;;;;5073449;28;20083;-70
2023/03/27 11:30:54;;;;;;;2.88;0.50;;;8.70;99.90;;;;;;5074589;28;20037;-70
2023/03/27 11:33:48;;;;;;;5.57;1.20;;;8.60;99.20;;;;;;5049208;28;20497;-69
2023/03/27 11:36:18;;;;;;;4.43;1.10;;;8.70;99.10;;;;;;5050826;28;20295;-70
2023/03/27 11:38:57;;;;;;;4.88;0.80;;;8.80;99.90;;;;;;5074326;28;20086;-69
2023/03/27 11:41:23;;;;;;;4.90;0.75;;;8.80;99.90;;;;;;5052434;28;20053;-70
2023/03/27 11:43:49;;;;;;;6.20;1.10;;;9.00;99.90;;;;;;5073850;28;20437;-70
2023/03/27 11:46:47;;;;;;;4.88;0.73;;;9.00;99.90;;;;;;5052462;28;20115;-70
2023/03/27 11:50:15;;;;;;;7.68;0.95;;;8.30;99.90;;;;;;5073335;28;20049;-70
2023/03/27 11:52:49;;;;;;;6.95;1.00;;;7.10;99.90;;;;;;4993869;28;20442;-69
2023/03/27 11:55:31;;;;;;;6.05;0.85;;;6.90;99.90;;;;;;5054263;28;20037;-70
2023/03/27 11:58:27;;;;;;;4.17;0.70;;;6.60;99.90;;;;;;5036911;28;20037;-70
2023/03/27 12:01:28;;;;;;;4.60;0.55;;;6.50;99.90;;;;;;5042720;28;20040;-70
2023/03/27 12:04:19;;;;;;;4.93;0.82;;;6.70;99.90;;;;;;5087001;28;20045;-70
2023/03/27 12:07:10;;;;;;;4.20;0.70;;;6.80;99.90;;;;;;5056068;28;20045;-70
2023/03/27 12:10:14;;;;;;;4.00;0.65;;;6.80;99.90;;;;;;5057889;28;20037;-70
2023/03/27 12:12:58;;;;;;;5.47;1.13;;;7.10;99.90;;;;;;5048635;28;20048;-70
2023/03/27 12:15:44;;;;;;;7.57;1.08;;;7.20;99.90;;;;;;5039972;28;20033;-70
2023/03/27 12:18:29;;;;;;;4.45;1.10;;;7.30;99.90;;;;;;5062692;28;20089;-70
2023/03/27 12:20:55;;;;;;;4.57;0.98;;;7.40;99.90;;;;;;5089676;27;20072;-70
2023/03/27 12:23:27;;;;;;;7.55;1.15;;;7.50;99.90;;;;;;5046221;28;20178;-70
2023/03/27 12:26:25;;;;;;;3.05;0.90;;;7.60;99.90;;;;;;5061528;28;20038;-70
2023/03/27 12:29:33;;;;;;;7.22;1.20;;;7.60;99.90;;;;;;5059134;28;20577;-70
2023/03/27 12:32:12;;;;;;;4.38;0.80;;;7.80;99.90;;;;;;5052137;28;20037;-70
2023/03/27 12:34:48;;;;;;;3.00;0.75;;;7.80;99.90;;;;;;5056241;28;20036;-70
2023/03/27 12:37:16;;;;;;;7.70;1.15;;;7.80;99.90;;;;;;5060886;28;20040;-70
2023/03/27 12:39:52;;;;;;;6.70;1.00;;;7.80;99.90;;;;;;5052279;28;20093;-70
2023/03/27 12:43:02;;;;;;;6.65;1.20;;;7.90;99.90;;;;;;5049849;28;20056;-70
2023/03/27 12:45:28;;;;;;;10.23;1.23;;;8.00;99.90;;;;;;5060679;28;20048;-70
2023/03/27 12:48:11;;;;;;;5.63;0.77;;;8.00;99.90;;;;;;5054587;28;20139;-70
2023/03/27 12:50:50;;;;;;;7.22;1.42;;;7.90;99.90;;;;;;5046715;28;20049;-70
2023/03/27 12:53:44;;;;;;;3.92;0.65;;;7.80;99.90;;;;;;5035732;28;20390;-70
2023/03/27 12:56:16;;;;;;;11.15;1.40;;;7.70;99.90;;;;;;5041755;28;20131;-70
2023/03/27 12:58:44;;;;;;;2.95;0.95;;;7.80;99.90;;;;;;5038846;28;20120;-70
2023/03/27 13:01:16;;;;;;;9.55;1.17;;;7.90;99.90;;;;;;5051474;28;20060;-70
2023/03/27 13:04:12;;;;;;;5.40;1.13;;;7.60;99.90;;;;;;5040943;28;20057;-70
2023/03/27 13:06:59;;;;;;;4.03;1.15;;;7.20;99.90;;;;;;5055631;28;20053;-70
2023/03/27 13:09:56;;;;;;;9.40;1.08;;;7.00;99.90;;;;;;5049655;28;20036;-70
2023/03/27 13:12:34;;;;;;;6.90;1.42;;;7.00;99.90;;;;;;5039400;28;20524;-71
2023/03/27 13:15:15;;;;;;;9.40;1.27;;;7.20;99.90;;;;;;5059754;28;20037;-70
2023/03/27 13:18:01;;;;;;;4.85;0.80;;;7.30;99.90;;;;;;5050528;28;20580;-70
2023/03/27 13:20:36;;;;;;;10.00;1.67;;;7.40;99.90;;;;;;5045448;28;20040;-70
2023/03/27 13:23:09;;;;;;;8.80;1.48;;;7.30;99.90;;;;;;5050337;28;20127;-70
2023/03/27 13:25:56;;;;;;;7.70;1.27;;;7.30;99.90;;;;;;5051870;28;20072;-70
2023/03/27 13:28:47;;;;;;;8.27;1.15;;;7.50;99.90;;;;;;5055291;28;20409;-70